Terminal Aerodrome Forecast
Issued by NWS

Home | Current Version | Previous Version | Text Only | Print | Product List | Glossary On
Versions: 1 2 3 4 5 6 7 8 9 10 11 12 13 14 15 16 17 18 19 20
000
FTUS41 KPBZ 291134
TAFDUJ
TAF
KDUJ 291134Z 2912/3012 22006KT P6SM VCSH OVC050
     FM292000 33004KT P6SM -SHRA VCTS OVC030CB
     FM300000 34004KT P6SM OVC015=

USA.gov is the U.S. government's official web portal to all federal, state and local government web resources and services.